sensor_id;sensor_type;location;lat;lon;timestamp;P1;durP1;ratioP1;P2;durP2;ratioP2
9413;SDS011;4746;35.664;139.738;2022-08-19T00:02:16;1.15;;;0.88;;
9413;SDS011;4746;35.664;139.738;2022-08-19T00:04:44;1.08;;;0.95;;
9413;SDS011;4746;35.664;139.738;2022-08-19T00:07:13;1.80;;;1.23;;
9413;SDS011;4746;35.664;139.738;2022-08-19T00:09:41;2.15;;;1.00;;
9413;SDS011;4746;35.664;139.738;2022-08-19T00:12:08;1.42;;;0.98;;
9413;SDS011;4746;35.664;139.738;2022-08-19T00:14:37;2.05;;;1.02;;
9413;SDS011;4746;35.664;139.738;2022-08-19T00:17:06;2.67;;;1.17;;
9413;SDS011;4746;35.664;139.738;2022-08-19T00:19:36;2.22;;;1.20;;
9413;SDS011;4746;35.664;139.738;2022-08-19T00:22:04;1.42;;;1.05;;
9413;SDS011;4746;35.664;139.738;2022-08-19T00:24:34;1.40;;;1.30;;
9413;SDS011;4746;35.664;139.738;2022-08-19T00:27:03;1.35;;;1.25;;
9413;SDS011;4746;35.664;139.738;2022-08-19T00:29:31;1.35;;;1.02;;
9413;SDS011;4746;35.664;139.738;2022-08-19T00:32:00;1.60;;;1.50;;
9413;SDS011;4746;35.664;139.738;2022-08-19T00:34:27;1.58;;;1.10;;
9413;SDS011;4746;35.664;139.738;2022-08-19T00:36:55;3.70;;;1.33;;
9413;SDS011;4746;35.664;139.738;2022-08-19T00:39:25;2.17;;;1.38;;
9413;SDS011;4746;35.664;139.738;2022-08-19T00:41:52;2.45;;;1.20;;
9413;SDS011;4746;35.664;139.738;2022-08-19T00:44:21;1.17;;;0.88;;
9413;SDS011;4746;35.664;139.738;2022-08-19T00:46:54;2.63;;;1.42;;
9413;SDS011;4746;35.664;139.738;2022-08-19T00:49:25;1.60;;;1.20;;
9413;SDS011;4746;35.664;139.738;2022-08-19T00:52:03;1.40;;;1.30;;
9413;SDS011;4746;35.664;139.738;2022-08-19T00:54:40;2.38;;;1.42;;
9413;SDS011;4746;35.664;139.738;2022-08-19T00:57:12;1.92;;;1.10;;
9413;SDS011;4746;35.664;139.738;2022-08-19T00:59:45;1.80;;;1.65;;
9413;SDS011;4746;35.664;139.738;2022-08-19T01:02:17;1.30;;;1.20;;
9413;SDS011;4746;35.664;139.738;2022-08-19T01:04:45;2.35;;;1.35;;
9413;SDS011;4746;35.664;139.738;2022-08-19T01:07:13;4.20;;;1.00;;
9413;SDS011;4746;35.664;139.738;2022-08-19T01:09:42;0.88;;;0.88;;
9413;SDS011;4746;35.664;139.738;2022-08-19T01:12:09;1.73;;;0.80;;
9413;SDS011;4746;35.664;139.738;2022-08-19T01:14:37;2.28;;;0.80;;
9413;SDS011;4746;35.664;139.738;2022-08-19T01:17:10;1.35;;;1.20;;
9413;SDS011;4746;35.664;139.738;2022-08-19T01:19:41;1.77;;;1.00;;
9413;SDS011;4746;35.664;139.738;2022-08-19T01:22:15;1.20;;;1.10;;
9413;SDS011;4746;35.664;139.738;2022-08-19T01:24:53;1.73;;;1.00;;
9413;SDS011;4746;35.664;139.738;2022-08-19T01:27:21;2.83;;;1.35;;
9413;SDS011;4746;35.664;139.738;2022-08-19T01:29:48;1.40;;;1.25;;
9413;SDS011;4746;35.664;139.738;2022-08-19T01:32:16;2.53;;;1.48;;
9413;SDS011;4746;35.664;139.738;2022-08-19T01:34:45;1.30;;;1.15;;
9413;SDS011;4746;35.664;139.738;2022-08-19T01:37:13;1.55;;;1.20;;
9413;SDS011;4746;35.664;139.738;2022-08-19T01:39:42;1.30;;;1.20;;
9413;SDS011;4746;35.664;139.738;2022-08-19T01:42:10;1.15;;;1.10;;
9413;SDS011;4746;35.664;139.738;2022-08-19T01:44:39;2.65;;;1.33;;
9413;SDS011;4746;35.664;139.738;2022-08-19T01:47:07;2.00;;;1.50;;
9413;SDS011;4746;35.664;139.738;2022-08-19T01:49:35;1.40;;;1.30;;
9413;SDS011;4746;35.664;139.738;2022-08-19T01:52:04;1.27;;;1.17;;
9413;SDS011;4746;35.664;139.738;2022-08-19T01:54:32;2.58;;;1.52;;
9413;SDS011;4746;35.664;139.738;2022-08-19T01:57:03;1.58;;;1.45;;
9413;SDS011;4746;35.664;139.738;2022-08-19T01:59:37;1.70;;;1.35;;
9413;SDS011;4746;35.664;139.738;2022-08-19T02:02:08;1.25;;;1.15;;
9413;SDS011;4746;35.664;139.738;2022-08-19T02:04:36;1.88;;;1.20;;
9413;SDS011;4746;35.664;139.738;2022-08-19T02:07:05;2.92;;;1.63;;
9413;SDS011;4746;35.664;139.738;2022-08-19T02:09:33;1.58;;;1.48;;
9413;SDS011;4746;35.664;139.738;2022-08-19T02:12:01;1.52;;;1.42;;
9413;SDS011;4746;35.664;139.738;2022-08-19T02:14:31;3.90;;;1.58;;
9413;SDS011;4746;35.664;139.738;2022-08-19T02:17:03;2.28;;;1.55;;
9413;SDS011;4746;35.664;139.738;2022-08-19T02:19:30;1.38;;;1.25;;
9413;SDS011;4746;35.664;139.738;2022-08-19T02:21:59;1.60;;;1.50;;
9413;SDS011;4746;35.664;139.738;2022-08-19T02:24:27;2.28;;;1.67;;
9413;SDS011;4746;35.664;139.738;2022-08-19T02:26:54;1.73;;;1.55;;
9413;SDS011;4746;35.664;139.738;2022-08-19T02:29:22;1.42;;;1.23;;
9413;SDS011;4746;35.664;139.738;2022-08-19T02:31:50;1.70;;;1.60;;
9413;SDS011;4746;35.664;139.738;2022-08-19T02:34:17;3.50;;;1.52;;
9413;SDS011;4746;35.664;139.738;2022-08-19T02:36:45;4.38;;;1.63;;
9413;SDS011;4746;35.664;139.738;2022-08-19T02:39:12;1.75;;;1.65;;
9413;SDS011;4746;35.664;139.738;2022-08-19T02:41:40;5.05;;;2.05;;
9413;SDS011;4746;35.664;139.738;2022-08-19T02:44:08;2.95;;;2.10;;
9413;SDS011;4746;35.664;139.738;2022-08-19T02:46:35;5.22;;;2.65;;
9413;SDS011;4746;35.664;139.738;2022-08-19T02:49:05;2.88;;;2.13;;
9413;SDS011;4746;35.664;139.738;2022-08-19T02:51:37;3.35;;;2.00;;
9413;SDS011;4746;35.664;139.738;2022-08-19T02:54:08;4.13;;;2.03;;
9413;SDS011;4746;35.664;139.738;2022-08-19T02:56:38;4.97;;;2.05;;
9413;SDS011;4746;35.664;139.738;2022-08-19T02:59:07;4.03;;;2.08;;
9413;SDS011;4746;35.664;139.738;2022-08-19T03:01:37;3.17;;;2.15;;
9413;SDS011;4746;35.664;139.738;2022-08-19T03:04:07;3.78;;;2.40;;
9413;SDS011;4746;35.664;139.738;2022-08-19T03:06:39;3.08;;;1.98;;
9413;SDS011;4746;35.664;139.738;2022-08-19T03:09:11;2.67;;;2.45;;
9413;SDS011;4746;35.664;139.738;2022-08-19T03:11:40;4.15;;;2.00;;
9413;SDS011;4746;35.664;139.738;2022-08-19T03:14:08;2.92;;;1.98;;
9413;SDS011;4746;35.664;139.738;2022-08-19T03:16:43;2.85;;;1.92;;
9413;SDS011;4746;35.664;139.738;2022-08-19T03:19:16;1.90;;;1.70;;
9413;SDS011;4746;35.664;139.738;2022-08-19T03:21:47;2.35;;;1.85;;
9413;SDS011;4746;35.664;139.738;2022-08-19T03:24:15;3.17;;;1.80;;
9413;SDS011;4746;35.664;139.738;2022-08-19T03:26:46;2.55;;;2.25;;
9413;SDS011;4746;35.664;139.738;2022-08-19T03:29:17;2.10;;;1.90;;
9413;SDS011;4746;35.664;139.738;2022-08-19T03:31:45;3.53;;;2.00;;
9413;SDS011;4746;35.664;139.738;2022-08-19T03:34:14;3.83;;;2.38;;
9413;SDS011;4746;35.664;139.738;2022-08-19T03:36:46;2.65;;;1.90;;
9413;SDS011;4746;35.664;139.738;2022-08-19T03:39:14;4.57;;;1.80;;
9413;SDS011;4746;35.664;139.738;2022-08-19T03:41:43;3.13;;;2.10;;
9413;SDS011;4746;35.664;139.738;2022-08-19T03:44:16;5.38;;;1.90;;
9413;SDS011;4746;35.664;139.738;2022-08-19T03:46:57;3.47;;;2.10;;
9413;SDS011;4746;35.664;139.738;2022-08-19T03:49:27;4.22;;;2.05;;
9413;SDS011;4746;35.664;139.738;2022-08-19T03:51:58;7.32;;;2.58;;
9413;SDS011;4746;35.664;139.738;2022-08-19T03:54:26;4.93;;;2.42;;
9413;SDS011;4746;35.664;139.738;2022-08-19T03:56:55;2.88;;;2.38;;
9413;SDS011;4746;35.664;139.738;2022-08-19T03:59:28;2.55;;;2.03;;
9413;SDS011;4746;35.664;139.738;2022-08-19T04:02:00;3.80;;;2.45;;
9413;SDS011;4746;35.664;139.738;2022-08-19T04:04:34;4.20;;;2.42;;
9413;SDS011;4746;35.664;139.738;2022-08-19T04:07:08;3.50;;;2.72;;
9413;SDS011;4746;35.664;139.738;2022-08-19T04:09:41;2.95;;;2.25;;
9413;SDS011;4746;35.664;139.738;2022-08-19T04:12:09;4.30;;;2.53;;
9413;SDS011;4746;35.664;139.738;2022-08-19T04:14:37;5.05;;;3.00;;
9413;SDS011;4746;35.664;139.738;2022-08-19T04:17:05;5.22;;;3.25;;
9413;SDS011;4746;35.664;139.738;2022-08-19T04:19:34;5.28;;;2.78;;
9413;SDS011;4746;35.664;139.738;2022-08-19T04:22:04;7.13;;;3.17;;
9413;SDS011;4746;35.664;139.738;2022-08-19T04:24:33;5.05;;;3.00;;
9413;SDS011;4746;35.664;139.738;2022-08-19T04:27:01;5.43;;;2.90;;
9413;SDS011;4746;35.664;139.738;2022-08-19T04:29:30;5.80;;;3.60;;
9413;SDS011;4746;35.664;139.738;2022-08-19T04:31:59;5.18;;;3.47;;
9413;SDS011;4746;35.664;139.738;2022-08-19T04:34:27;5.25;;;2.88;;
9413;SDS011;4746;35.664;139.738;2022-08-19T04:36:56;5.22;;;2.83;;
9413;SDS011;4746;35.664;139.738;2022-08-19T04:39:26;3.65;;;2.60;;
9413;SDS011;4746;35.664;139.738;2022-08-19T04:42:15;4.60;;;3.28;;
9413;SDS011;4746;35.664;139.738;2022-08-19T04:45:03;3.67;;;2.40;;
9413;SDS011;4746;35.664;139.738;2022-08-19T04:47:39;4.20;;;2.70;;
9413;SDS011;4746;35.664;139.738;2022-08-19T04:50:09;4.55;;;3.15;;
9413;SDS011;4746;35.664;139.738;2022-08-19T04:52:38;2.85;;;2.30;;
9413;SDS011;4746;35.664;139.738;2022-08-19T04:55:11;5.70;;;3.10;;
9413;SDS011;4746;35.664;139.738;2022-08-19T04:57:39;5.82;;;3.47;;
9413;SDS011;4746;35.664;139.738;2022-08-19T05:00:08;4.18;;;3.20;;
9413;SDS011;4746;35.664;139.738;2022-08-19T05:02:36;4.00;;;2.67;;
9413;SDS011;4746;35.664;139.738;2022-08-19T05:05:04;2.78;;;2.05;;
9413;SDS011;4746;35.664;139.738;2022-08-19T05:07:32;2.10;;;1.90;;
9413;SDS011;4746;35.664;139.738;2022-08-19T05:10:02;2.03;;;1.65;;
9413;SDS011;4746;35.664;139.738;2022-08-19T05:12:32;2.20;;;1.70;;
9413;SDS011;4746;35.664;139.738;2022-08-19T05:15:00;2.22;;;1.88;;
9413;SDS011;4746;35.664;139.738;2022-08-19T05:17:31;3.17;;;2.38;;
9413;SDS011;4746;35.664;139.738;2022-08-19T05:19:58;2.97;;;2.00;;
9413;SDS011;4746;35.664;139.738;2022-08-19T05:22:45;5.07;;;2.50;;
9413;SDS011;4746;35.664;139.738;2022-08-19T05:25:15;3.90;;;2.47;;
9413;SDS011;4746;35.664;139.738;2022-08-19T05:27:46;4.40;;;2.58;;
9413;SDS011;4746;35.664;139.738;2022-08-19T05:30:14;4.65;;;2.15;;
9413;SDS011;4746;35.664;139.738;2022-08-19T05:32:43;4.28;;;2.85;;
9413;SDS011;4746;35.664;139.738;2022-08-19T05:35:11;2.13;;;1.92;;
9413;SDS011;4746;35.664;139.738;2022-08-19T05:37:38;2.30;;;1.88;;
9413;SDS011;4746;35.664;139.738;2022-08-19T05:40:06;4.15;;;2.03;;
9413;SDS011;4746;35.664;139.738;2022-08-19T05:42:35;2.78;;;1.90;;
9413;SDS011;4746;35.664;139.738;2022-08-19T05:45:03;3.05;;;2.00;;
9413;SDS011;4746;35.664;139.738;2022-08-19T05:47:31;2.35;;;2.00;;
9413;SDS011;4746;35.664;139.738;2022-08-19T05:50:00;2.17;;;1.88;;
9413;SDS011;4746;35.664;139.738;2022-08-19T05:52:28;4.95;;;2.05;;
9413;SDS011;4746;35.664;139.738;2022-08-19T05:54:55;2.10;;;1.60;;
9413;SDS011;4746;35.664;139.738;2022-08-19T05:57:23;2.03;;;1.83;;
9413;SDS011;4746;35.664;139.738;2022-08-19T05:59:54;3.80;;;1.48;;
9413;SDS011;4746;35.664;139.738;2022-08-19T06:02:22;3.15;;;1.60;;
9413;SDS011;4746;35.664;139.738;2022-08-19T06:04:53;2.75;;;1.88;;
9413;SDS011;4746;35.664;139.738;2022-08-19T06:07:21;2.85;;;1.75;;
9413;SDS011;4746;35.664;139.738;2022-08-19T06:09:49;2.67;;;1.80;;
9413;SDS011;4746;35.664;139.738;2022-08-19T06:12:18;6.32;;;2.00;;
9413;SDS011;4746;35.664;139.738;2022-08-19T06:14:46;4.75;;;2.13;;
9413;SDS011;4746;35.664;139.738;2022-08-19T06:17:16;2.72;;;1.80;;
9413;SDS011;4746;35.664;139.738;2022-08-19T06:19:43;2.85;;;1.83;;
9413;SDS011;4746;35.664;139.738;2022-08-19T06:22:10;3.60;;;2.05;;
9413;SDS011;4746;35.664;139.738;2022-08-19T06:24:40;3.40;;;1.95;;
9413;SDS011;4746;35.664;139.738;2022-08-19T06:27:08;4.80;;;2.22;;
9413;SDS011;4746;35.664;139.738;2022-08-19T06:29:35;2.30;;;2.05;;
9413;SDS011;4746;35.664;139.738;2022-08-19T06:32:04;4.63;;;2.05;;
9413;SDS011;4746;35.664;139.738;2022-08-19T06:34:32;4.28;;;1.83;;
9413;SDS011;4746;35.664;139.738;2022-08-19T06:37:01;4.10;;;2.00;;
9413;SDS011;4746;35.664;139.738;2022-08-19T06:39:32;3.15;;;2.15;;
9413;SDS011;4746;35.664;139.738;2022-08-19T06:42:04;4.07;;;2.20;;
9413;SDS011;4746;35.664;139.738;2022-08-19T06:44:37;6.13;;;2.58;;
9413;SDS011;4746;35.664;139.738;2022-08-19T06:47:08;5.28;;;2.75;;
9413;SDS011;4746;35.664;139.738;2022-08-19T06:49:38;4.05;;;2.90;;
9413;SDS011;4746;35.664;139.738;2022-08-19T06:52:06;4.97;;;2.80;;
9413;SDS011;4746;35.664;139.738;2022-08-19T06:54:38;3.42;;;2.78;;
9413;SDS011;4746;35.664;139.738;2022-08-19T06:57:10;7.65;;;3.78;;
9413;SDS011;4746;35.664;139.738;2022-08-19T06:59:40;7.35;;;3.85;;
9413;SDS011;4746;35.664;139.738;2022-08-19T07:02:07;6.78;;;4.15;;
9413;SDS011;4746;35.664;139.738;2022-08-19T07:04:35;9.65;;;4.18;;
9413;SDS011;4746;35.664;139.738;2022-08-19T07:07:08;4.05;;;3.25;;
9413;SDS011;4746;35.664;139.738;2022-08-19T07:09:39;6.32;;;3.88;;
9413;SDS011;4746;35.664;139.738;2022-08-19T07:12:10;7.85;;;4.10;;
9413;SDS011;4746;35.664;139.738;2022-08-19T07:14:42;9.30;;;4.20;;
9413;SDS011;4746;35.664;139.738;2022-08-19T07:17:12;10.00;;;4.97;;
9413;SDS011;4746;35.664;139.738;2022-08-19T07:19:40;8.77;;;4.88;;
9413;SDS011;4746;35.664;139.738;2022-08-19T07:22:08;6.97;;;5.38;;
9413;SDS011;4746;35.664;139.738;2022-08-19T07:24:36;9.00;;;5.00;;
9413;SDS011;4746;35.664;139.738;2022-08-19T07:27:05;12.15;;;5.30;;
9413;SDS011;4746;35.664;139.738;2022-08-19T07:29:35;8.25;;;5.45;;
9413;SDS011;4746;35.664;139.738;2022-08-19T07:32:04;9.43;;;5.22;;
9413;SDS011;4746;35.664;139.738;2022-08-19T07:34:34;9.63;;;5.95;;
9413;SDS011;4746;35.664;139.738;2022-08-19T07:37:06;9.68;;;5.18;;
9413;SDS011;4746;35.664;139.738;2022-08-19T07:39:34;6.97;;;5.03;;
9413;SDS011;4746;35.664;139.738;2022-08-19T07:42:06;8.35;;;4.70;;
9413;SDS011;4746;35.664;139.738;2022-08-19T07:44:36;6.22;;;4.45;;
9413;SDS011;4746;35.664;139.738;2022-08-19T07:47:04;6.88;;;4.68;;
9413;SDS011;4746;35.664;139.738;2022-08-19T07:49:32;8.30;;;4.40;;
9413;SDS011;4746;35.664;139.738;2022-08-19T07:52:03;6.63;;;3.63;;
9413;SDS011;4746;35.664;139.738;2022-08-19T07:54:35;7.60;;;4.18;;
9413;SDS011;4746;35.664;139.738;2022-08-19T07:57:06;3.97;;;3.40;;
9413;SDS011;4746;35.664;139.738;2022-08-19T07:59:34;4.85;;;3.60;;
9413;SDS011;4746;35.664;139.738;2022-08-19T08:02:02;5.70;;;3.67;;
9413;SDS011;4746;35.664;139.738;2022-08-19T08:04:31;5.13;;;3.30;;
9413;SDS011;4746;35.664;139.738;2022-08-19T08:07:17;4.50;;;2.85;;
9413;SDS011;4746;35.664;139.738;2022-08-19T08:10:03;3.55;;;2.83;;
9413;SDS011;4746;35.664;139.738;2022-08-19T08:12:35;7.45;;;3.92;;
9413;SDS011;4746;35.664;139.738;2022-08-19T08:15:09;3.17;;;2.53;;
9413;SDS011;4746;35.664;139.738;2022-08-19T08:17:42;2.70;;;2.35;;
9413;SDS011;4746;35.664;139.738;2022-08-19T08:20:12;2.85;;;2.50;;
9413;SDS011;4746;35.664;139.738;2022-08-19T08:22:46;3.17;;;2.42;;
9413;SDS011;4746;35.664;139.738;2022-08-19T08:25:33;3.65;;;2.05;;
9413;SDS011;4746;35.664;139.738;2022-08-19T08:28:03;5.00;;;2.10;;
9413;SDS011;4746;35.664;139.738;2022-08-19T08:30:34;4.25;;;2.22;;
9413;SDS011;4746;35.664;139.738;2022-08-19T08:33:02;2.53;;;2.30;;
9413;SDS011;4746;35.664;139.738;2022-08-19T08:35:30;2.75;;;2.10;;
9413;SDS011;4746;35.664;139.738;2022-08-19T08:37:58;3.35;;;2.47;;
9413;SDS011;4746;35.664;139.738;2022-08-19T08:43:22;5.32;;;2.55;;
9413;SDS011;4746;35.664;139.738;2022-08-19T08:48:39;3.58;;;2.63;;
9413;SDS011;4746;35.664;139.738;2022-08-19T08:51:44;5.03;;;2.65;;
9413;SDS011;4746;35.664;139.738;2022-08-19T08:54:18;5.45;;;2.88;;
9413;SDS011;4746;35.664;139.738;2022-08-19T08:56:50;4.72;;;2.70;;
9413;SDS011;4746;35.664;139.738;2022-08-19T08:59:21;4.60;;;2.90;;
9413;SDS011;4746;35.664;139.738;2022-08-19T09:02:00;2.92;;;2.60;;
9413;SDS011;4746;35.664;139.738;2022-08-19T09:04:28;4.45;;;3.20;;
9413;SDS011;4746;35.664;139.738;2022-08-19T09:07:08;4.30;;;2.65;;
9413;SDS011;4746;35.664;139.738;2022-08-19T09:09:50;4.80;;;2.55;;
9413;SDS011;4746;35.664;139.738;2022-08-19T09:15:06;4.75;;;2.90;;
9413;SDS011;4746;35.664;139.738;2022-08-19T09:17:39;4.53;;;3.15;;
9413;SDS011;4746;35.664;139.738;2022-08-19T09:22:45;6.40;;;3.20;;
9413;SDS011;4746;35.664;139.738;2022-08-19T09:25:15;5.22;;;2.60;;
9413;SDS011;4746;35.664;139.738;2022-08-19T09:27:49;4.00;;;2.70;;
9413;SDS011;4746;35.664;139.738;2022-08-19T09:30:28;5.47;;;2.75;;
9413;SDS011;4746;35.664;139.738;2022-08-19T09:33:05;3.83;;;2.75;;
9413;SDS011;4746;35.664;139.738;2022-08-19T09:35:33;2.60;;;2.40;;
9413;SDS011;4746;35.664;139.738;2022-08-19T09:38:01;6.32;;;2.90;;
9413;SDS011;4746;35.664;139.738;2022-08-19T09:40:29;3.80;;;3.35;;
9413;SDS011;4746;35.664;139.738;2022-08-19T09:42:58;4.55;;;4.15;;
9413;SDS011;4746;35.664;139.738;2022-08-19T09:45:28;4.78;;;3.00;;
9413;SDS011;4746;35.664;139.738;2022-08-19T09:47:56;3.90;;;3.22;;
9413;SDS011;4746;35.664;139.738;2022-08-19T09:50:24;5.60;;;3.35;;
9413;SDS011;4746;35.664;139.738;2022-08-19T09:52:51;4.22;;;3.42;;
9413;SDS011;4746;35.664;139.738;2022-08-19T09:55:19;9.13;;;4.07;;
9413;SDS011;4746;35.664;139.738;2022-08-19T09:57:46;4.57;;;3.58;;
9413;SDS011;4746;35.664;139.738;2022-08-19T10:00:14;5.75;;;3.65;;
9413;SDS011;4746;35.664;139.738;2022-08-19T10:02:41;4.18;;;3.17;;
9413;SDS011;4746;35.664;139.738;2022-08-19T10:05:09;5.10;;;3.38;;
9413;SDS011;4746;35.664;139.738;2022-08-19T10:07:54;4.85;;;3.33;;
9413;SDS011;4746;35.664;139.738;2022-08-19T10:10:22;3.30;;;2.90;;
9413;SDS011;4746;35.664;139.738;2022-08-19T10:12:50;3.75;;;3.47;;
9413;SDS011;4746;35.664;139.738;2022-08-19T10:15:18;4.22;;;3.28;;
9413;SDS011;4746;35.664;139.738;2022-08-19T10:17:46;4.72;;;2.78;;
9413;SDS011;4746;35.664;139.738;2022-08-19T10:20:15;3.70;;;3.25;;
9413;SDS011;4746;35.664;139.738;2022-08-19T10:22:43;4.70;;;3.40;;
9413;SDS011;4746;35.664;139.738;2022-08-19T10:25:10;6.38;;;2.70;;
9413;SDS011;4746;35.664;139.738;2022-08-19T10:27:42;4.13;;;2.95;;
9413;SDS011;4746;35.664;139.738;2022-08-19T10:30:09;4.28;;;3.35;;
9413;SDS011;4746;35.664;139.738;2022-08-19T10:32:38;5.57;;;3.30;;
9413;SDS011;4746;35.664;139.738;2022-08-19T10:35:05;3.95;;;3.03;;
9413;SDS011;4746;35.664;139.738;2022-08-19T10:37:34;5.80;;;3.10;;
9413;SDS011;4746;35.664;139.738;2022-08-19T10:40:07;7.35;;;2.85;;
9413;SDS011;4746;35.664;139.738;2022-08-19T10:42:36;5.63;;;3.70;;
9413;SDS011;4746;35.664;139.738;2022-08-19T10:45:04;4.93;;;3.60;;
9413;SDS011;4746;35.664;139.738;2022-08-19T10:47:33;4.97;;;3.75;;
9413;SDS011;4746;35.664;139.738;2022-08-19T10:50:00;5.57;;;2.92;;
9413;SDS011;4746;35.664;139.738;2022-08-19T10:52:48;6.72;;;3.20;;
9413;SDS011;4746;35.664;139.738;2022-08-19T10:55:21;6.22;;;3.30;;
9413;SDS011;4746;35.664;139.738;2022-08-19T10:58:15;6.05;;;3.58;;
9413;SDS011;4746;35.664;139.738;2022-08-19T11:00:56;4.90;;;2.90;;
9413;SDS011;4746;35.664;139.738;2022-08-19T11:03:25;4.30;;;3.10;;
9413;SDS011;4746;35.664;139.738;2022-08-19T11:06:07;5.13;;;3.20;;
9413;SDS011;4746;35.664;139.738;2022-08-19T11:08:35;5.55;;;3.65;;
9413;SDS011;4746;35.664;139.738;2022-08-19T11:11:06;8.80;;;3.78;;
9413;SDS011;4746;35.664;139.738;2022-08-19T11:13:35;8.48;;;3.40;;
9413;SDS011;4746;35.664;139.738;2022-08-19T11:16:10;6.70;;;3.00;;
9413;SDS011;4746;35.664;139.738;2022-08-19T11:18:43;5.88;;;2.75;;
9413;SDS011;4746;35.664;139.738;2022-08-19T11:21:16;6.60;;;3.20;;
9413;SDS011;4746;35.664;139.738;2022-08-19T11:23:47;5.40;;;2.83;;
9413;SDS011;4746;35.664;139.738;2022-08-19T11:26:17;5.10;;;2.67;;
9413;SDS011;4746;35.664;139.738;2022-08-19T11:28:47;4.43;;;2.80;;
9413;SDS011;4746;35.664;139.738;2022-08-19T11:31:19;5.28;;;2.67;;
9413;SDS011;4746;35.664;139.738;2022-08-19T11:33:53;3.20;;;2.42;;
9413;SDS011;4746;35.664;139.738;2022-08-19T11:36:27;5.68;;;2.67;;
9413;SDS011;4746;35.664;139.738;2022-08-19T11:38:54;4.55;;;2.40;;
9413;SDS011;4746;35.664;139.738;2022-08-19T11:41:23;6.00;;;2.90;;
9413;SDS011;4746;35.664;139.738;2022-08-19T11:43:52;5.95;;;2.88;;
9413;SDS011;4746;35.664;139.738;2022-08-19T11:46:22;6.38;;;3.40;;
9413;SDS011;4746;35.664;139.738;2022-08-19T11:48:55;8.52;;;3.42;;
9413;SDS011;4746;35.664;139.738;2022-08-19T11:51:26;6.85;;;3.95;;
9413;SDS011;4746;35.664;139.738;2022-08-19T11:53:54;7.45;;;4.45;;
9413;SDS011;4746;35.664;139.738;2022-08-19T11:56:24;8.32;;;4.40;;
9413;SDS011;4746;35.664;139.738;2022-08-19T11:58:54;6.15;;;4.40;;
9413;SDS011;4746;35.664;139.738;2022-08-19T12:01:25;6.80;;;4.65;;
9413;SDS011;4746;35.664;139.738;2022-08-19T12:03:53;7.30;;;3.92;;
9413;SDS011;4746;35.664;139.738;2022-08-19T12:06:28;7.03;;;4.65;;
9413;SDS011;4746;35.664;139.738;2022-08-19T12:09:00;8.73;;;4.22;;
9413;SDS011;4746;35.664;139.738;2022-08-19T12:11:32;8.57;;;4.70;;
9413;SDS011;4746;35.664;139.738;2022-08-19T12:14:01;7.50;;;4.32;;
9413;SDS011;4746;35.664;139.738;2022-08-19T12:16:30;6.78;;;4.18;;
9413;SDS011;4746;35.664;139.738;2022-08-19T12:18:59;6.68;;;4.47;;
9413;SDS011;4746;35.664;139.738;2022-08-19T12:21:30;8.07;;;4.57;;
9413;SDS011;4746;35.664;139.738;2022-08-19T12:24:01;7.60;;;4.35;;
9413;SDS011;4746;35.664;139.738;2022-08-19T12:26:31;5.70;;;4.63;;
9413;SDS011;4746;35.664;139.738;2022-08-19T12:28:59;7.63;;;4.60;;
9413;SDS011;4746;35.664;139.738;2022-08-19T12:31:27;5.72;;;4.32;;
9413;SDS011;4746;35.664;139.738;2022-08-19T12:33:55;5.13;;;3.55;;
9413;SDS011;4746;35.664;139.738;2022-08-19T12:36:24;5.47;;;3.08;;
9413;SDS011;4746;35.664;139.738;2022-08-19T12:38:51;6.53;;;4.13;;
9413;SDS011;4746;35.664;139.738;2022-08-19T12:41:19;5.40;;;3.95;;
9413;SDS011;4746;35.664;139.738;2022-08-19T12:43:47;6.35;;;3.90;;
9413;SDS011;4746;35.664;139.738;2022-08-19T12:46:16;6.40;;;4.25;;
9413;SDS011;4746;35.664;139.738;2022-08-19T12:48:45;6.82;;;4.07;;
9413;SDS011;4746;35.664;139.738;2022-08-19T12:51:14;5.63;;;3.85;;
9413;SDS011;4746;35.664;139.738;2022-08-19T12:53:46;6.63;;;3.78;;
9413;SDS011;4746;35.664;139.738;2022-08-19T12:56:15;4.15;;;2.80;;
9413;SDS011;4746;35.664;139.738;2022-08-19T12:58:44;4.32;;;3.05;;
9413;SDS011;4746;35.664;139.738;2022-08-19T13:01:12;8.15;;;3.45;;
9413;SDS011;4746;35.664;139.738;2022-08-19T13:03:42;5.97;;;3.05;;
9413;SDS011;4746;35.664;139.738;2022-08-19T13:06:12;5.88;;;3.20;;
9413;SDS011;4746;35.664;139.738;2022-08-19T13:08:40;6.18;;;3.58;;
9413;SDS011;4746;35.664;139.738;2022-08-19T13:11:09;4.53;;;3.17;;
9413;SDS011;4746;35.664;139.738;2022-08-19T13:13:43;4.28;;;3.08;;
9413;SDS011;4746;35.664;139.738;2022-08-19T13:16:15;3.83;;;3.10;;
9413;SDS011;4746;35.664;139.738;2022-08-19T13:18:46;5.60;;;3.50;;
9413;SDS011;4746;35.664;139.738;2022-08-19T13:21:15;3.58;;;3.22;;
9413;SDS011;4746;35.664;139.738;2022-08-19T13:23:45;5.25;;;3.35;;
9413;SDS011;4746;35.664;139.738;2022-08-19T13:26:14;4.60;;;3.17;;
9413;SDS011;4746;35.664;139.738;2022-08-19T13:28:42;4.20;;;3.33;;
9413;SDS011;4746;35.664;139.738;2022-08-19T13:31:30;5.13;;;2.97;;
9413;SDS011;4746;35.664;139.738;2022-08-19T13:34:19;4.80;;;3.50;;
9413;SDS011;4746;35.664;139.738;2022-08-19T13:36:57;7.32;;;3.42;;
9413;SDS011;4746;35.664;139.738;2022-08-19T13:39:28;6.05;;;3.38;;
9413;SDS011;4746;35.664;139.738;2022-08-19T13:42:04;6.90;;;3.40;;
9413;SDS011;4746;35.664;139.738;2022-08-19T13:44:33;4.88;;;3.45;;
9413;SDS011;4746;35.664;139.738;2022-08-19T13:47:02;4.78;;;3.40;;
9413;SDS011;4746;35.664;139.738;2022-08-19T13:49:32;6.30;;;3.47;;
9413;SDS011;4746;35.664;139.738;2022-08-19T13:52:02;6.72;;;3.33;;
9413;SDS011;4746;35.664;139.738;2022-08-19T13:54:31;6.45;;;3.65;;
9413;SDS011;4746;35.664;139.738;2022-08-19T13:56:58;6.57;;;3.47;;
9413;SDS011;4746;35.664;139.738;2022-08-19T13:59:26;5.78;;;3.28;;
9413;SDS011;4746;35.664;139.738;2022-08-19T14:01:57;6.38;;;3.53;;
9413;SDS011;4746;35.664;139.738;2022-08-19T14:04:26;6.07;;;3.60;;
9413;SDS011;4746;35.664;139.738;2022-08-19T14:06:53;4.47;;;3.33;;
9413;SDS011;4746;35.664;139.738;2022-08-19T14:09:21;4.93;;;3.40;;
9413;SDS011;4746;35.664;139.738;2022-08-19T14:11:48;5.80;;;3.50;;
9413;SDS011;4746;35.664;139.738;2022-08-19T14:14:16;5.60;;;3.22;;
9413;SDS011;4746;35.664;139.738;2022-08-19T14:16:44;4.60;;;3.60;;
9413;SDS011;4746;35.664;139.738;2022-08-19T14:19:11;5.63;;;3.75;;
9413;SDS011;4746;35.664;139.738;2022-08-19T14:21:39;5.20;;;3.47;;
9413;SDS011;4746;35.664;139.738;2022-08-19T14:24:07;7.47;;;3.80;;
9413;SDS011;4746;35.664;139.738;2022-08-19T14:26:35;7.88;;;3.65;;
9413;SDS011;4746;35.664;139.738;2022-08-19T14:29:03;4.70;;;3.45;;
9413;SDS011;4746;35.664;139.738;2022-08-19T14:31:31;5.63;;;3.30;;
9413;SDS011;4746;35.664;139.738;2022-08-19T14:33:58;4.88;;;3.47;;
9413;SDS011;4746;35.664;139.738;2022-08-19T14:36:27;6.10;;;3.90;;
9413;SDS011;4746;35.664;139.738;2022-08-19T14:38:55;9.05;;;3.72;;
9413;SDS011;4746;35.664;139.738;2022-08-19T14:41:23;5.93;;;3.80;;
9413;SDS011;4746;35.664;139.738;2022-08-19T14:43:52;5.25;;;3.63;;
9413;SDS011;4746;35.664;139.738;2022-08-19T14:46:21;8.18;;;3.90;;
9413;SDS011;4746;35.664;139.738;2022-08-19T14:48:52;6.57;;;4.30;;
9413;SDS011;4746;35.664;139.738;2022-08-19T14:51:21;9.43;;;4.55;;
9413;SDS011;4746;35.664;139.738;2022-08-19T14:53:52;7.90;;;4.10;;
9413;SDS011;4746;35.664;139.738;2022-08-19T14:56:21;4.60;;;3.80;;
9413;SDS011;4746;35.664;139.738;2022-08-19T14:58:53;7.35;;;4.90;;
9413;SDS011;4746;35.664;139.738;2022-08-19T15:01:25;6.55;;;4.63;;
9413;SDS011;4746;35.664;139.738;2022-08-19T15:03:53;6.70;;;4.85;;
9413;SDS011;4746;35.664;139.738;2022-08-19T15:06:22;6.30;;;4.28;;
9413;SDS011;4746;35.664;139.738;2022-08-19T15:08:51;6.60;;;4.93;;
9413;SDS011;4746;35.664;139.738;2022-08-19T15:11:21;8.52;;;4.95;;
9413;SDS011;4746;35.664;139.738;2022-08-19T15:13:53;8.35;;;4.90;;
9413;SDS011;4746;35.664;139.738;2022-08-19T15:16:23;6.38;;;4.53;;
9413;SDS011;4746;35.664;139.738;2022-08-19T15:18:55;6.72;;;4.53;;